Time;durP1;ratioP1;P1;durP2;ratioP2;P2;SDS_P1;SDS_P2;PMS_P1;PMS_P2;Temp;Humidity;BMP_temperature;BMP_pressure;BME280_temperature;BME280_humidity;BME280_pressure;Samples;Min_cycle;Max_cycle;Signal;HPM_P1;HPM_P2
2023/10/31 00:02:20;;;;;;;12.43;6.05;;;19.50;99.90;;;;;;4933327;29;20060;-89
2023/10/31 00:04:46;;;;;;;10.70;5.65;;;19.40;99.90;;;;;;4904044;29;20031;-88
2023/10/31 00:07:12;;;;;;;12.55;6.25;;;19.40;99.90;;;;;;4913499;29;20494;-87
2023/10/31 00:09:39;;;;;;;15.27;6.30;;;19.40;99.90;;;;;;4882142;29;20036;-87
2023/10/31 00:12:06;;;;;;;14.77;5.97;;;19.40;99.90;;;;;;4882259;29;20036;-89
2023/10/31 00:14:32;;;;;;;7.97;5.20;;;19.40;99.90;;;;;;4897691;29;20497;-88
2023/10/31 00:16:59;;;;;;;11.02;5.70;;;19.40;99.90;;;;;;4882297;29;20025;-88
2023/10/31 00:19:25;;;;;;;12.50;5.57;;;19.50;99.90;;;;;;4883269;29;20055;-88
2023/10/31 00:21:52;;;;;;;12.65;5.50;;;19.50;99.90;;;;;;4885775;29;20024;-89
2023/10/31 00:24:19;;;;;;;9.63;5.50;;;19.50;99.90;;;;;;4901317;29;20040;-88
2023/10/31 00:26:45;;;;;;;9.38;5.93;;;19.60;99.90;;;;;;4885546;29;20398;-86
2023/10/31 00:29:14;;;;;;;9.27;6.00;;;19.60;99.90;;;;;;4902042;29;20028;-88
2023/10/31 00:31:41;;;;;;;6.28;5.72;;;19.60;99.90;;;;;;4885712;29;20036;-89
2023/10/31 00:34:08;;;;;;;7.00;6.35;;;19.70;99.90;;;;;;4901661;29;20024;-91
2023/10/31 00:36:35;;;;;;;10.57;6.68;;;19.60;99.90;;;;;;4885859;29;20037;-89
2023/10/31 00:39:02;;;;;;;8.35;5.97;;;19.60;99.90;;;;;;4901652;29;20036;-90
2023/10/31 00:41:28;;;;;;;11.50;6.32;;;19.60;99.90;;;;;;4889261;29;20087;-90
2023/10/31 00:43:55;;;;;;;22.02;6.47;;;19.70;99.90;;;;;;4889035;29;20386;-90
2023/10/31 00:46:21;;;;;;;10.55;7.13;;;19.80;99.90;;;;;;4901087;29;20041;-90
2023/10/31 00:48:48;;;;;;;10.00;6.47;;;19.80;99.90;;;;;;4900936;29;20029;-90
2023/10/31 00:51:14;;;;;;;7.75;6.18;;;19.90;99.90;;;;;;4900916;29;20063;-90
2023/10/31 00:53:41;;;;;;;16.52;7.43;;;19.90;99.90;;;;;;4885489;29;20124;-90
2023/10/31 00:56:08;;;;;;;12.95;6.47;;;19.90;99.90;;;;;;4885192;29;20391;-90
2023/10/31 00:58:34;;;;;;;9.45;6.80;;;19.90;99.90;;;;;;4901700;29;20029;-89
2023/10/31 01:01:03;;;;;;;11.18;6.40;;;19.90;99.90;;;;;;4911246;29;20036;-90
2023/10/31 01:03:30;;;;;;;10.68;6.35;;;19.90;99.90;;;;;;4887790;29;20101;-90
2023/10/31 01:05:56;;;;;;;15.88;6.90;;;19.80;99.90;;;;;;4871760;29;20073;-89
2023/10/31 01:08:23;;;;;;;9.73;7.07;;;19.90;99.90;;;;;;4888235;29;20123;-89
2023/10/31 01:10:49;;;;;;;10.13;6.10;;;19.90;99.90;;;;;;4871091;29;20029;-89
2023/10/31 01:13:16;;;;;;;9.65;6.65;;;19.90;99.90;;;;;;4872050;29;20052;-89
2023/10/31 01:15:42;;;;;;;8.68;6.25;;;19.90;99.90;;;;;;4871274;29;20029;-91
2023/10/31 01:18:09;;;;;;;13.65;6.47;;;19.90;99.90;;;;;;4871401;29;20033;-90
2023/10/31 01:20:38;;;;;;;10.73;6.40;;;19.90;99.90;;;;;;4872230;29;20025;-90
2023/10/31 01:23:04;;;;;;;13.05;6.95;;;19.90;99.90;;;;;;4886920;29;20084;-89
2023/10/31 01:25:31;;;;;;;8.20;6.30;;;19.90;99.90;;;;;;4899274;29;20037;-91
2023/10/31 01:27:57;;;;;;;12.27;6.50;;;19.90;99.90;;;;;;4899390;29;20127;-90
2023/10/31 01:30:24;;;;;;;18.15;6.65;;;19.90;99.90;;;;;;4898744;29;20132;-90
2023/10/31 01:32:52;;;;;;;13.32;6.53;;;19.90;99.90;;;;;;4900019;29;20040;-90
2023/10/31 01:35:18;;;;;;;16.38;6.53;;;19.90;99.90;;;;;;4899912;29;20036;-89
2023/10/31 01:37:46;;;;;;;9.23;6.40;;;19.90;99.90;;;;;;4900638;29;20494;-91
2023/10/31 01:40:13;;;;;;;10.23;7.00;;;19.90;99.90;;;;;;4883907;29;20024;-90
2023/10/31 01:42:40;;;;;;;10.95;6.30;;;19.90;99.90;;;;;;4899428;29;20084;-89
2023/10/31 01:45:08;;;;;;;13.25;6.32;;;19.90;99.90;;;;;;4918701;29;20503;-90
2023/10/31 01:47:34;;;;;;;15.45;6.15;;;19.90;99.90;;;;;;4915727;29;20063;-90
2023/10/31 01:50:01;;;;;;;12.20;6.10;;;19.90;99.90;;;;;;4903126;29;20110;-89
2023/10/31 01:52:29;;;;;;;11.90;6.13;;;19.90;99.90;;;;;;4902964;29;20028;-90
2023/10/31 01:54:56;;;;;;;9.50;5.90;;;19.90;99.90;;;;;;4902989;29;20035;-91
2023/10/31 01:57:23;;;;;;;17.15;6.70;;;19.90;99.90;;;;;;4902950;29;20024;-90
2023/10/31 01:59:50;;;;;;;12.98;7.05;;;19.90;99.90;;;;;;4902914;29;20028;-89
2023/10/31 02:02:17;;;;;;;17.30;7.35;;;19.90;99.90;;;;;;4902809;29;20028;-90
2023/10/31 02:04:44;;;;;;;14.27;6.43;;;20.00;99.90;;;;;;4903025;29;20028;-89
2023/10/31 02:07:11;;;;;;;17.42;6.78;;;20.00;99.90;;;;;;4902258;29;20052;-89
2023/10/31 02:09:39;;;;;;;12.30;6.47;;;19.90;99.90;;;;;;4902825;29;20028;-90
2023/10/31 02:12:06;;;;;;;11.30;6.53;;;19.90;99.90;;;;;;4902480;29;20032;-90
2023/10/31 02:14:32;;;;;;;9.98;5.90;;;19.90;99.90;;;;;;4902863;29;20398;-90
2023/10/31 02:16:58;;;;;;;15.38;6.82;;;19.90;99.90;;;;;;4902325;29;20032;-90
2023/10/31 02:19:27;;;;;;;12.40;5.70;;;19.90;99.90;;;;;;4902356;29;20482;-90
2023/10/31 02:21:53;;;;;;;13.45;6.20;;;19.90;99.90;;;;;;4902397;29;20036;-89
2023/10/31 02:24:19;;;;;;;12.40;5.78;;;19.90;99.90;;;;;;4902306;29;20446;-89
2023/10/31 02:26:46;;;;;;;8.25;5.72;;;20.00;99.90;;;;;;4902180;29;20092;-90
2023/10/31 02:29:14;;;;;;;15.95;6.22;;;19.90;99.90;;;;;;4902350;29;20095;-89
2023/10/31 02:31:41;;;;;;;8.05;5.80;;;20.00;99.90;;;;;;4898948;29;20092;-89
2023/10/31 02:34:10;;;;;;;12.95;6.25;;;19.90;99.90;;;;;;4899066;29;20030;-90
2023/10/31 02:36:37;;;;;;;8.40;6.20;;;19.90;99.90;;;;;;4899140;29;20076;-89
2023/10/31 02:39:03;;;;;;;13.48;5.90;;;20.00;99.90;;;;;;4898532;29;20031;-89
2023/10/31 02:41:30;;;;;;;12.40;6.32;;;19.90;99.90;;;;;;4896469;29;20520;-90
2023/10/31 02:44:00;;;;;;;10.93;6.28;;;20.00;99.90;;;;;;4898635;29;20084;-89
2023/10/31 02:46:27;;;;;;;9.82;5.78;;;20.00;99.90;;;;;;4905937;29;20131;-88
2023/10/31 02:48:53;;;;;;;12.32;6.00;;;20.00;99.90;;;;;;4901752;29;20083;-89
2023/10/31 02:51:20;;;;;;;13.00;6.47;;;20.00;99.90;;;;;;4898771;29;20032;-87
2023/10/31 02:53:46;;;;;;;14.75;6.63;;;20.00;99.90;;;;;;4898946;29;20120;-88
2023/10/31 02:56:14;;;;;;;9.90;6.82;;;20.00;99.90;;;;;;4911596;29;20032;-89
2023/10/31 02:58:41;;;;;;;9.65;6.38;;;19.90;99.90;;;;;;4884925;29;20119;-88
2023/10/31 03:01:07;;;;;;;7.45;5.95;;;19.90;99.90;;;;;;4901445;29;20128;-89
2023/10/31 03:03:34;;;;;;;15.43;6.80;;;20.00;99.90;;;;;;4902634;29;20029;-89
2023/10/31 03:06:01;;;;;;;13.82;6.20;;;20.00;99.90;;;;;;4901806;29;20056;-88
2023/10/31 03:08:28;;;;;;;10.70;6.00;;;20.00;99.90;;;;;;4901103;29;20028;-90
2023/10/31 03:10:54;;;;;;;14.45;6.43;;;20.10;99.90;;;;;;4901489;29;20029;-89
2023/10/31 03:13:21;;;;;;;10.27;6.30;;;20.10;99.90;;;;;;4901554;29;20479;-88
2023/10/31 03:15:48;;;;;;;12.25;7.00;;;20.10;99.90;;;;;;4901377;29;20044;-89
2023/10/31 03:18:15;;;;;;;12.25;5.97;;;20.00;99.90;;;;;;4886200;29;20040;-89
2023/10/31 03:20:48;;;;;;;11.68;6.30;;;20.00;99.90;;;;;;4898047;29;20048;-89
2023/10/31 03:23:15;;;;;;;10.10;6.13;;;20.00;99.90;;;;;;4898445;29;20056;-88
2023/10/31 03:25:41;;;;;;;13.40;6.43;;;20.00;99.90;;;;;;4911765;29;20036;-88
2023/10/31 03:28:19;;;;;;;19.33;6.60;;;20.10;99.90;;;;;;4901542;29;20064;-88
2023/10/31 03:30:47;;;;;;;14.75;5.90;;;20.10;99.90;;;;;;4901265;29;20394;-89
2023/10/31 03:33:15;;;;;;;9.48;6.00;;;20.10;99.90;;;;;;4897963;29;20036;-89
2023/10/31 03:35:50;;;;;;;12.35;5.97;;;20.10;99.90;;;;;;4882864;29;20092;-88
2023/10/31 03:38:17;;;;;;;10.35;6.13;;;20.10;99.90;;;;;;4900982;29;20028;-89
2023/10/31 03:40:43;;;;;;;14.02;6.47;;;20.20;99.90;;;;;;4901023;29;20035;-90
2023/10/31 03:43:12;;;;;;;10.68;6.65;;;20.20;99.90;;;;;;4901663;29;20033;-89
2023/10/31 03:45:38;;;;;;;13.75;6.28;;;20.20;99.90;;;;;;4901414;29;20032;-89
2023/10/31 03:48:05;;;;;;;18.88;6.55;;;20.20;99.90;;;;;;4898153;29;20475;-89
2023/10/31 03:50:31;;;;;;;17.35;6.40;;;20.10;99.90;;;;;;4882399;29;20438;-89
2023/10/31 03:52:58;;;;;;;9.88;6.00;;;20.10;99.90;;;;;;4898092;29;20033;-89
2023/10/31 03:55:25;;;;;;;12.02;6.75;;;20.20;99.90;;;;;;4885288;29;20028;-89
2023/10/31 03:57:51;;;;;;;10.32;6.20;;;20.20;99.90;;;;;;4901741;29;20032;-89
2023/10/31 04:00:18;;;;;;;9.55;6.10;;;20.20;99.90;;;;;;4886455;29;20029;-89
2023/10/31 04:02:45;;;;;;;15.07;6.53;;;20.20;99.90;;;;;;4886292;29;20033;-88
2023/10/31 04:05:12;;;;;;;12.70;6.07;;;20.20;99.90;;;;;;4890895;29;20052;-88
2023/10/31 04:07:39;;;;;;;12.65;6.10;;;20.20;99.90;;;;;;4907820;29;20413;-88
2023/10/31 04:10:06;;;;;;;10.98;6.28;;;20.20;99.90;;;;;;4912625;29;20547;-87
2023/10/31 04:12:33;;;;;;;17.05;6.13;;;20.20;99.90;;;;;;4939120;29;20039;-88
2023/10/31 04:15:00;;;;;;;15.00;6.53;;;20.30;99.90;;;;;;4926598;29;20579;-86
2023/10/31 04:17:26;;;;;;;8.98;6.15;;;20.20;99.90;;;;;;4926749;29;20031;-88
2023/10/31 04:19:53;;;;;;;11.48;6.10;;;20.20;99.90;;;;;;4944555;29;20042;-88
2023/10/31 04:22:19;;;;;;;9.23;6.07;;;20.30;99.90;;;;;;4926245;29;20036;-87
2023/10/31 04:24:49;;;;;;;14.82;6.25;;;20.20;99.90;;;;;;4908580;29;20152;-85
2023/10/31 04:27:15;;;;;;;16.48;6.40;;;20.20;99.90;;;;;;4924086;29;20046;-87
2023/10/31 04:29:42;;;;;;;13.18;5.90;;;20.20;99.90;;;;;;4923373;29;20106;-87
2023/10/31 04:32:09;;;;;;;11.93;6.55;;;20.30;99.90;;;;;;4908647;29;20035;-87
2023/10/31 04:34:35;;;;;;;9.63;6.03;;;20.30;99.90;;;;;;4908882;29;20036;-88
2023/10/31 04:37:02;;;;;;;17.67;6.57;;;20.30;99.90;;;;;;4909730;29;20035;-88
2023/10/31 04:39:28;;;;;;;14.75;6.40;;;20.30;99.90;;;;;;4907762;29;20054;-91
2023/10/31 04:41:55;;;;;;;18.05;6.63;;;20.30;99.90;;;;;;4907725;29;20032;-88
2023/10/31 04:44:21;;;;;;;15.75;6.35;;;20.30;99.90;;;;;;4912163;29;20020;-88
2023/10/31 04:46:48;;;;;;;22.75;7.00;;;20.30;99.90;;;;;;4914771;29;20049;-88
2023/10/31 04:49:18;;;;;;;12.63;6.72;;;20.30;99.90;;;;;;4923376;29;20027;-88
2023/10/31 04:51:48;;;;;;;10.88;6.32;;;20.30;99.90;;;;;;4919401;29;20115;-89
2023/10/31 04:54:17;;;;;;;10.68;6.00;;;20.30;99.90;;;;;;4923568;29;20023;-90
2023/10/31 04:56:44;;;;;;;10.75;6.07;;;20.30;99.90;;;;;;4922721;29;20062;-89
2023/10/31 04:59:11;;;;;;;14.27;6.20;;;20.30;99.90;;;;;;4925604;29;20112;-89
2023/10/31 05:01:37;;;;;;;18.38;6.68;;;20.30;99.90;;;;;;4925846;29;20039;-88
2023/10/31 05:04:04;;;;;;;14.77;6.75;;;20.40;99.90;;;;;;4925558;29;20024;-89
2023/10/31 05:06:31;;;;;;;14.30;6.95;;;20.40;99.90;;;;;;4909223;29;20079;-88
2023/10/31 05:08:57;;;;;;;16.25;6.50;;;20.40;99.90;;;;;;4903971;29;20043;-92
2023/10/31 05:11:23;;;;;;;11.35;7.50;;;20.50;99.90;;;;;;4906421;29;20119;-86
2023/10/31 05:13:51;;;;;;;16.42;7.10;;;20.50;99.90;;;;;;4900336;29;20068;-88
2023/10/31 05:16:17;;;;;;;14.75;6.32;;;20.50;99.90;;;;;;4900559;29;20032;-87
2023/10/31 05:18:44;;;;;;;13.57;6.47;;;20.50;99.90;;;;;;4884820;29;20028;-88
2023/10/31 05:21:10;;;;;;;24.60;7.03;;;20.50;99.90;;;;;;4899873;29;20119;-86
2023/10/31 05:23:37;;;;;;;16.73;6.72;;;20.50;99.90;;;;;;4884376;29;20025;-87
2023/10/31 05:26:06;;;;;;;16.33;6.38;;;20.50;99.90;;;;;;4884371;29;20521;-87
2023/10/31 05:28:32;;;;;;;15.23;7.32;;;20.50;99.90;;;;;;4884444;29;20033;-87
2023/10/31 05:31:02;;;;;;;12.88;6.63;;;20.50;99.90;;;;;;4884281;29;20032;-87
2023/10/31 05:33:29;;;;;;;20.83;7.22;;;20.50;99.90;;;;;;4884504;29;20033;-87
2023/10/31 05:35:56;;;;;;;15.05;6.22;;;20.50;99.90;;;;;;4900136;29;20028;-87
2023/10/31 05:38:22;;;;;;;16.48;7.00;;;20.60;99.90;;;;;;4915828;29;20131;-86
2023/10/31 05:40:48;;;;;;;15.07;6.97;;;20.60;99.90;;;;;;4902342;29;20036;-87
2023/10/31 05:43:16;;;;;;;18.63;7.53;;;20.60;99.90;;;;;;4902711;29;20084;-88
2023/10/31 05:45:42;;;;;;;13.98;6.90;;;20.70;99.90;;;;;;4902682;29;20032;-87
2023/10/31 05:48:14;;;;;;;10.73;7.38;;;20.70;99.90;;;;;;4902932;29;20054;-87
2023/10/31 05:50:42;;;;;;;11.88;6.63;;;20.80;99.90;;;;;;4902598;29;20024;-85
2023/10/31 05:53:09;;;;;;;19.80;7.57;;;20.80;99.90;;;;;;4902590;29;20088;-86
2023/10/31 05:55:39;;;;;;;11.07;7.95;;;20.80;99.90;;;;;;4899165;29;20066;-87
2023/10/31 05:58:06;;;;;;;17.92;8.38;;;20.90;99.90;;;;;;4884152;29;20033;-87
2023/10/31 06:00:32;;;;;;;11.35;7.80;;;20.90;99.90;;;;;;4883961;29;20080;-87
2023/10/31 06:02:59;;;;;;;12.40;7.72;;;20.90;99.90;;;;;;4899673;29;20039;-88
2023/10/31 06:05:26;;;;;;;23.63;7.72;;;20.90;99.90;;;;;;4883610;29;20073;-88
2023/10/31 06:07:52;;;;;;;18.23;8.13;;;20.90;99.90;;;;;;4884237;29;20402;-86
2023/10/31 06:10:19;;;;;;;13.00;8.27;;;20.90;99.90;;;;;;4899153;29;20487;-86
2023/10/31 06:12:46;;;;;;;14.88;8.00;;;20.90;99.90;;;;;;4883817;29;20039;-89
2023/10/31 06:15:14;;;;;;;19.55;8.90;;;21.00;99.90;;;;;;4899285;29;20028;-88
2023/10/31 06:17:40;;;;;;;15.15;7.70;;;21.00;99.90;;;;;;4899091;29;20490;-88
2023/10/31 06:20:10;;;;;;;23.48;8.50;;;21.00;99.90;;;;;;4899850;29;20036;-86
2023/10/31 06:22:37;;;;;;;19.75;8.23;;;21.00;99.90;;;;;;4891500;29;20044;-87
2023/10/31 06:25:03;;;;;;;20.58;8.10;;;21.10;99.90;;;;;;4899138;29;20077;-87
2023/10/31 06:27:30;;;;;;;15.10;7.95;;;21.10;99.90;;;;;;4899590;29;20119;-89
2023/10/31 06:29:56;;;;;;;13.18;7.90;;;21.10;99.90;;;;;;4900596;29;20040;-88
2023/10/31 06:32:24;;;;;;;18.85;8.00;;;21.20;99.90;;;;;;4902141;29;20111;-87
2023/10/31 06:34:51;;;;;;;11.80;7.75;;;21.20;99.90;;;;;;4902550;29;20032;-87
2023/10/31 06:37:19;;;;;;;25.40;9.20;;;21.30;99.90;;;;;;4900207;29;20051;-84
2023/10/31 06:39:46;;;;;;;9.48;7.93;;;21.30;99.90;;;;;;4901335;29;20028;-87
2023/10/31 06:42:16;;;;;;;14.30;8.52;;;21.30;99.90;;;;;;4901878;29;20035;-86
2023/10/31 06:44:42;;;;;;;17.80;8.23;;;21.30;99.90;;;;;;4898580;29;20084;-87
2023/10/31 06:47:09;;;;;;;18.27;7.95;;;21.40;99.90;;;;;;4898793;29;20574;-87
2023/10/31 06:49:36;;;;;;;16.38;8.18;;;21.30;99.90;;;;;;4883340;29;20494;-88
2023/10/31 06:52:06;;;;;;;16.35;8.93;;;21.30;99.90;;;;;;4898765;29;20577;-90
2023/10/31 06:54:34;;;;;;;14.25;8.40;;;21.30;99.90;;;;;;4907420;29;20024;-85
2023/10/31 06:57:04;;;;;;;23.98;8.55;;;21.30;99.90;;;;;;4900061;29;20028;-85
2023/10/31 06:59:31;;;;;;;14.18;8.57;;;21.40;99.90;;;;;;4901345;29;20448;-86
2023/10/31 07:01:57;;;;;;;12.02;8.77;;;21.40;99.90;;;;;;4898071;29;20142;-87
2023/10/31 07:04:25;;;;;;;16.83;9.23;;;21.40;99.90;;;;;;4882503;29;20032;-84
2023/10/31 07:06:57;;;;;;;14.55;8.88;;;21.50;99.90;;;;;;4894553;29;20048;-85
2023/10/31 07:09:24;;;;;;;17.50;9.20;;;21.50;99.90;;;;;;4882652;29;20088;-86
2023/10/31 07:11:52;;;;;;;19.02;8.93;;;21.50;99.90;;;;;;4887330;29;20028;-85
2023/10/31 07:14:19;;;;;;;17.92;9.35;;;21.60;99.90;;;;;;4917186;29;20032;-85
2023/10/31 07:16:49;;;;;;;15.02;8.73;;;21.60;99.90;;;;;;4901018;29;20163;-86
2023/10/31 07:19:18;;;;;;;15.40;8.85;;;21.70;99.90;;;;;;4901322;29;20040;-86
2023/10/31 07:21:46;;;;;;;14.60;9.50;;;21.70;99.90;;;;;;4901082;29;20025;-86
2023/10/31 07:24:14;;;;;;;21.63;9.75;;;21.80;99.90;;;;;;4901130;29;20039;-85
2023/10/31 07:26:41;;;;;;;17.58;9.27;;;21.80;99.90;;;;;;4900847;29;20172;-85
2023/10/31 07:29:09;;;;;;;20.98;9.52;;;21.80;99.90;;;;;;4900396;29;20032;-86
2023/10/31 07:31:38;;;;;;;19.02;10.10;;;21.80;99.90;;;;;;4900893;29;20028;-86
2023/10/31 07:34:05;;;;;;;14.88;9.65;;;21.80;99.90;;;;;;4916753;29;20028;-86
2023/10/31 07:36:39;;;;;;;18.20;9.65;;;21.80;99.90;;;;;;4901220;29;20060;-86
2023/10/31 07:39:06;;;;;;;14.85;10.27;;;21.90;99.90;;;;;;4901119;29;20032;-87
2023/10/31 07:41:32;;;;;;;18.48;9.90;;;21.80;99.90;;;;;;4882183;29;20124;-87
2023/10/31 07:43:59;;;;;;;18.45;10.07;;;21.90;99.90;;;;;;4897601;29;20028;-88
2023/10/31 07:46:25;;;;;;;18.05;10.60;;;21.90;99.90;;;;;;4882401;29;20044;-87
2023/10/31 07:48:51;;;;;;;17.08;10.15;;;22.00;99.90;;;;;;4882456;29;20479;-86
2023/10/31 07:51:19;;;;;;;27.58;10.48;;;22.00;99.90;;;;;;4882036;29;20076;-87
2023/10/31 07:53:47;;;;;;;13.45;9.85;;;22.00;99.90;;;;;;4882342;29;20063;-87
2023/10/31 07:56:22;;;;;;;13.90;10.40;;;22.10;99.90;;;;;;4882265;29;20459;-86
2023/10/31 07:58:52;;;;;;;16.48;10.00;;;22.20;99.90;;;;;;4882315;29;20032;-85
2023/10/31 08:01:19;;;;;;;16.70;10.40;;;22.20;99.90;;;;;;4882186;29;20033;-86
2023/10/31 08:03:48;;;;;;;16.85;10.77;;;22.20;99.90;;;;;;4928332;29;20016;-86
2023/10/31 08:06:16;;;;;;;24.83;11.30;;;22.40;99.90;;;;;;4882130;29;20053;-87
2023/10/31 08:08:43;;;;;;;18.50;10.85;;;22.40;99.90;;;;;;4887807;29;20064;-86
2023/10/31 08:11:11;;;;;;;20.83;11.70;;;22.50;99.90;;;;;;4882259;29;20039;-86
2023/10/31 08:13:38;;;;;;;22.50;11.45;;;22.60;99.90;;;;;;4882162;29;20390;-87
2023/10/31 08:16:06;;;;;;;18.73;11.65;;;22.80;99.90;;;;;;4883627;29;20036;-86
2023/10/31 08:18:32;;;;;;;18.30;12.32;;;22.90;99.90;;;;;;4900725;29;20032;-86
2023/10/31 08:20:59;;;;;;;17.90;12.45;;;22.90;99.90;;;;;;4916389;29;20028;-86
2023/10/31 08:23:29;;;;;;;17.10;12.23;;;22.80;99.90;;;;;;4900795;29;20035;-87
2023/10/31 08:25:58;;;;;;;26.23;12.55;;;22.70;99.90;;;;;;4900515;29;20032;-87
2023/10/31 08:28:24;;;;;;;20.67;12.30;;;22.70;99.90;;;;;;4900005;29;20067;-86
2023/10/31 08:30:51;;;;;;;17.95;11.48;;;22.70;99.90;;;;;;4895139;29;20043;-85
2023/10/31 08:33:18;;;;;;;19.05;12.05;;;22.70;99.90;;;;;;4898375;29;20102;-86
2023/10/31 08:35:47;;;;;;;13.38;11.98;;;22.70;99.90;;;;;;4900139;29;20102;-85
2023/10/31 08:38:15;;;;;;;20.35;12.07;;;22.70;99.90;;;;;;4900141;29;20040;-88
2023/10/31 08:40:42;;;;;;;19.40;11.93;;;22.80;99.90;;;;;;4901762;29;20036;-85
2023/10/31 08:43:09;;;;;;;17.08;12.82;;;23.10;99.90;;;;;;4904397;29;20032;-91
2023/10/31 08:45:36;;;;;;;21.73;14.30;;;23.20;99.90;;;;;;4900852;29;20028;-92
2023/10/31 08:48:05;;;;;;;18.83;13.63;;;23.40;99.90;;;;;;4885409;29;20052;-88
2023/10/31 08:50:31;;;;;;;19.92;14.05;;;23.40;99.90;;;;;;4885464;29;20052;-90
2023/10/31 08:52:58;;;;;;;22.70;13.80;;;23.20;99.90;;;;;;4885925;29;20029;-90
2023/10/31 08:55:27;;;;;;;16.55;12.85;;;23.30;99.90;;;;;;4901159;29;20039;-90
2023/10/31 08:57:56;;;;;;;16.63;12.98;;;23.30;99.90;;;;;;4901035;29;20078;-86
2023/10/31 09:00:28;;;;;;;18.15;12.57;;;23.10;99.90;;;;;;4916178;29;20033;-87
2023/10/31 09:02:55;;;;;;;19.10;13.18;;;23.20;99.90;;;;;;4904091;29;20402;-85
2023/10/31 09:05:34;;;;;;;15.75;13.00;;;23.30;99.90;;;;;;4884436;29;20048;-86
2023/10/31 09:08:02;;;;;;;17.40;14.00;;;23.50;99.90;;;;;;4888988;29;20048;-87
2023/10/31 09:10:29;;;;;;;18.80;14.57;;;23.70;99.90;;;;;;4885177;29;20035;-88
2023/10/31 09:12:58;;;;;;;17.27;14.93;;;23.90;99.90;;;;;;4899771;29;20127;-88
2023/10/31 09:15:25;;;;;;;17.42;15.35;;;24.20;99.90;;;;;;4903448;29;20032;-87
2023/10/31 09:17:51;;;;;;;17.83;16.00;;;24.40;99.90;;;;;;4903554;29;20119;-86
2023/10/31 09:20:18;;;;;;;17.05;15.57;;;24.50;99.90;;;;;;4903503;29;20035;-87
2023/10/31 09:22:44;;;;;;;18.77;16.77;;;24.60;99.90;;;;;;4900019;29;20486;-87
2023/10/31 09:25:11;;;;;;;22.88;17.08;;;24.50;99.90;;;;;;4893663;29;20036;-87
2023/10/31 09:27:40;;;;;;;19.17;16.50;;;24.70;99.90;;;;;;4899790;29;20475;-87
2023/10/31 09:30:07;;;;;;;19.20;16.00;;;24.60;99.90;;;;;;4899801;29;20501;-87
2023/10/31 09:32:34;;;;;;;18.05;16.27;;;24.60;99.90;;;;;;4899707;29;20063;-85
2023/10/31 09:35:00;;;;;;;26.55;16.33;;;24.30;99.90;;;;;;4902154;29;20032;-84
2023/10/31 09:37:29;;;;;;;19.00;16.55;;;24.30;99.90;;;;;;4901986;29;20031;-84
2023/10/31 09:39:58;;;;;;;24.73;17.17;;;24.60;99.90;;;;;;4902024;29;20095;-83
2023/10/31 09:42:26;;;;;;;18.85;16.85;;;24.40;99.90;;;;;;4911107;29;20020;-84
2023/10/31 09:44:53;;;;;;;18.95;16.77;;;24.70;99.90;;;;;;4889176;29;20072;-84
2023/10/31 09:47:21;;;;;;;25.67;16.70;;;24.60;99.90;;;;;;4901737;29;20040;-83
2023/10/31 09:49:49;;;;;;;18.60;16.70;;;24.40;99.90;;;;;;4901802;29;20505;-83
2023/10/31 09:52:20;;;;;;;19.92;15.38;;;24.20;99.90;;;;;;4911376;29;20037;-83
2023/10/31 09:54:50;;;;;;;23.50;15.77;;;24.20;99.90;;;;;;4899723;29;20025;-85
2023/10/31 09:57:17;;;;;;;20.50;15.30;;;24.00;99.90;;;;;;4898633;29;20394;-85
2023/10/31 09:59:44;;;;;;;16.40;14.75;;;23.90;99.90;;;;;;4899244;29;20033;-87
2023/10/31 10:02:10;;;;;;;16.55;14.75;;;24.10;99.90;;;;;;4883566;29;20032;-88
2023/10/31 10:04:38;;;;;;;20.50;14.82;;;24.10;99.90;;;;;;4883948;29;20021;-87
2023/10/31 10:07:05;;;;;;;17.40;14.45;;;24.00;99.90;;;;;;4898690;29;20503;-85
2023/10/31 10:09:34;;;;;;;18.50;14.63;;;24.10;99.90;;;;;;4883555;29;20056;-90
2023/10/31 10:12:02;;;;;;;20.50;14.10;;;24.00;99.90;;;;;;4899084;29;20447;-85
2023/10/31 10:14:31;;;;;;;15.90;14.43;;;24.10;99.90;;;;;;4899165;29;20046;-87
2023/10/31 10:16:58;;;;;;;23.63;15.18;;;24.10;99.90;;;;;;4898964;29;20395;-88
2023/10/31 10:19:25;;;;;;;18.67;15.02;;;24.20;99.90;;;;;;4899029;29;20111;-88
2023/10/31 10:21:59;;;;;;;22.80;14.80;;;24.30;99.90;;;;;;4898444;29;20044;-85
2023/10/31 10:24:27;;;;;;;16.98;14.88;;;24.30;99.90;;;;;;4915095;29;20119;-91
2023/10/31 10:26:55;;;;;;;20.83;14.40;;;24.20;99.90;;;;;;4898444;29;20104;-87
2023/10/31 10:29:26;;;;;;;16.00;14.30;;;24.10;99.90;;;;;;4914172;29;20037;-86
2023/10/31 10:31:53;;;;;;;16.65;13.93;;;23.90;99.90;;;;;;4900782;29;20123;-86
2023/10/31 10:34:20;;;;;;;17.80;14.10;;;23.90;99.90;;;;;;4883685;29;20115;-87
2023/10/31 10:36:52;;;;;;;20.50;14.23;;;23.90;99.90;;;;;;4883556;29;20042;-87
2023/10/31 10:39:21;;;;;;;18.77;14.45;;;24.00;99.90;;;;;;4892222;29;20028;-87
2023/10/31 10:41:57;;;;;;;22.63;14.15;;;24.00;99.90;;;;;;4899071;29;20505;-88
2023/10/31 10:44:34;;;;;;;22.42;14.15;;;24.20;99.90;;;;;;4883228;29;20025;-88
2023/10/31 10:47:06;;;;;;;25.90;14.98;;;24.20;99.90;;;;;;4883278;29;20491;-88
2023/10/31 10:49:36;;;;;;;18.17;14.23;;;24.10;99.90;;;;;;4890611;29;20088;-88
2023/10/31 10:52:23;;;;;;;26.25;14.88;;;24.30;99.90;;;;;;4898901;29;20033;-88
2023/10/31 10:54:58;;;;;;;20.67;15.45;;;24.30;99.90;;;;;;4904856;29;20033;-88
2023/10/31 10:57:28;;;;;;;19.38;15.00;;;24.50;99.90;;;;;;4898617;29;20032;-88
2023/10/31 11:00:01;;;;;;;17.70;16.00;;;24.60;99.90;;;;;;4911452;29;20137;-90
2023/10/31 11:02:32;;;;;;;18.50;15.30;;;24.60;99.90;;;;;;4898693;29;20031;-89
2023/10/31 11:04:59;;;;;;;24.60;15.90;;;24.50;99.90;;;;;;4899497;29;20135;-89
2023/10/31 11:07:28;;;;;;;16.70;15.07;;;24.50;99.90;;;;;;4904587;29;20413;-89
2023/10/31 11:09:57;;;;;;;20.75;14.88;;;24.50;99.90;;;;;;4914435;29;20118;-90
2023/10/31 11:12:25;;;;;;;20.55;14.65;;;24.40;99.90;;;;;;4920460;29;20058;-89
2023/10/31 11:14:52;;;;;;;17.02;15.20;;;24.50;99.90;;;;;;4920219;29;20027;-89
2023/10/31 11:17:41;;;;;;;16.10;14.60;;;24.60;99.90;;;;;;4920477;29;20487;-90
2023/10/31 11:20:11;;;;;;;17.77;14.95;;;24.30;99.90;;;;;;4904884;29;20568;-89
2023/10/31 11:22:39;;;;;;;22.80;14.38;;;24.20;99.90;;;;;;4920313;29;20031;-89
2023/10/31 11:25:10;;;;;;;21.50;14.20;;;24.00;99.90;;;;;;4920559;29;20031;-89
2023/10/31 11:27:37;;;;;;;19.08;13.57;;;24.00;99.90;;;;;;4920442;29;20253;-88
2023/10/31 11:30:08;;;;;;;23.75;14.98;;;24.20;99.90;;;;;;4920246;29;20036;-88
2023/10/31 11:32:36;;;;;;;23.92;14.50;;;24.40;99.90;;;;;;4920141;29;20055;-89
2023/10/31 11:35:03;;;;;;;22.60;15.45;;;24.70;99.90;;;;;;4904548;29;20366;-89
2023/10/31 11:37:37;;;;;;;23.17;15.80;;;24.90;99.90;;;;;;4904513;29;20036;-89
2023/10/31 11:40:22;;;;;;;22.77;16.13;;;24.50;99.90;;;;;;4920172;29;20482;-88
2023/10/31 11:42:54;;;;;;;23.70;15.60;;;24.40;99.90;;;;;;4920052;29;20059;-89
2023/10/31 11:45:28;;;;;;;31.92;15.75;;;24.30;99.90;;;;;;4938945;29;20038;-89
2023/10/31 11:47:55;;;;;;;16.58;14.90;;;24.40;99.90;;;;;;4923122;29;20043;-88
2023/10/31 11:50:23;;;;;;;18.75;14.50;;;24.30;99.90;;;;;;4923095;29;20409;-90
2023/10/31 11:53:00;;;;;;;19.80;15.15;;;24.40;99.90;;;;;;4923349;29;20039;-90
2023/10/31 11:55:27;;;;;;;19.75;14.75;;;24.40;99.90;;;;;;4939109;29;20126;-89
2023/10/31 11:57:54;;;;;;;17.05;14.65;;;24.50;99.90;;;;;;4923274;29;20027;-90
2023/10/31 12:00:23;;;;;;;19.52;14.75;;;24.60;99.90;;;;;;4923031;29;20043;-90
2023/10/31 12:03:00;;;;;;;20.77;15.10;;;24.50;99.90;;;;;;4923453;29;20397;-90
2023/10/31 12:05:27;;;;;;;18.42;15.50;;;24.50;99.90;;;;;;4914272;29;20372;-83
2023/10/31 12:07:54;;;;;;;25.85;15.05;;;24.50;99.90;;;;;;4899694;29;20095;-84
2023/10/31 12:10:30;;;;;;;19.85;14.00;;;24.50;99.90;;;;;;4901118;29;20060;-90
2023/10/31 12:12:58;;;;;;;21.95;14.90;;;24.50;99.90;;;;;;4901281;29;20549;-89
2023/10/31 12:15:27;;;;;;;19.58;14.43;;;24.40;99.90;;;;;;4902002;29;20024;-89
2023/10/31 12:17:59;;;;;;;23.52;16.60;;;24.20;99.90;;;;;;4904874;29;20036;-85
2023/10/31 12:20:27;;;;;;;24.67;16.95;;;24.20;99.90;;;;;;4904795;29;20120;-89
2023/10/31 12:23:04;;;;;;;23.00;14.02;;;24.20;99.90;;;;;;4904788;29;20032;-88
2023/10/31 12:25:32;;;;;;;20.08;13.77;;;24.00;99.90;;;;;;4905129;29;20083;-89
2023/10/31 12:27:59;;;;;;;19.70;13.80;;;24.00;99.90;;;;;;4901121;29;20032;-89
2023/10/31 12:30:26;;;;;;;17.73;13.68;;;24.00;99.90;;;;;;4898745;29;20030;-90
2023/10/31 12:32:59;;;;;;;15.73;13.57;;;24.00;99.90;;;;;;4885538;29;20391;-90
2023/10/31 12:35:27;;;;;;;20.83;13.63;;;24.00;99.90;;;;;;4885564;29;20048;-89
2023/10/31 12:37:56;;;;;;;16.80;13.05;;;23.80;99.90;;;;;;4885635;29;20046;-88